Portada
METAR-TAF:

METAR-TAF

Aeropuertos :

Parsabad, Irán

latitud: 39-36-13N, longitud: 47-52-53E, altitud: 77 m

Observación

El informe se hizo hace 32 minutos, a las 20:00 UTC
Viento 12 kt del sureste
Temperatura 6°C
Humedad 87%
Presión 1020 hPa
Visibilidad 10 km o más
Escasas nubes a una altura de 4000 ft

METAR: OITP 202000Z 13012KT 9999 FEW040 06/04 Q1020

Hora: 01:02 (20:32 UTC)


TAF: falta

Observaciones y pronósticos meteorológicos de más de 4000 aeropuertos (mensajes METAR y TAF).

Los puntos amarillos y rojos representan las estaciones disponibles.

Ponga el ratón en el punto deseado para ver el nombre de la estación.

Haga clic para ver las observaciones y los pronósticos meteorológicos.

Para cambiar el mapa : haga clic en los botones verdes con una cruz de color negro para hacer un zoom, en el botón verde con un guión para alejar o en las flechas verdes para mapas adyacentes.


METAR-TAF: